Time;durP1;ratioP1;P1;durP2;ratioP2;P2;SDS_P1;SDS_P2;PMS_P1;PMS_P2;Temp;Humidity;BMP_temperature;BMP_pressure;BME280_temperature;BME280_humidity;BME280_pressure;Samples;Min_cycle;Max_cycle;Signal;HPM_P1;HPM_P2
2021/09/19 00:02:12;;;;;;;13.68;10.50;;;14.10;76.10;;;;;;5041489;28;20028;-75
2021/09/19 00:04:38;;;;;;;15.23;11.82;;;14.00;76.20;;;;;;5045042;28;20501;-75
2021/09/19 00:07:04;;;;;;;16.65;12.10;;;14.00;76.50;;;;;;5039915;28;20075;-75
2021/09/19 00:09:29;;;;;;;16.13;13.57;;;14.00;76.80;;;;;;5035679;28;20084;-75
2021/09/19 00:11:55;;;;;;;15.13;11.02;;;14.00;77.40;;;;;;5035431;28;20095;-75
2021/09/19 00:14:21;;;;;;;14.63;11.10;;;14.00;77.50;;;;;;5034158;28;20017;-75
2021/09/19 00:16:48;;;;;;;20.15;12.95;;;14.00;77.70;;;;;;5035277;28;20381;-75
2021/09/19 00:19:13;;;;;;;15.85;12.90;;;14.00;77.70;;;;;;5035299;28;20022;-75
2021/09/19 00:21:39;;;;;;;18.50;13.57;;;14.00;77.90;;;;;;5033930;28;20390;-75
2021/09/19 00:24:05;;;;;;;15.38;12.45;;;14.00;78.10;;;;;;5035299;28;20474;-75
2021/09/19 00:26:30;;;;;;;19.92;14.02;;;14.00;78.30;;;;;;5035329;28;20052;-75
2021/09/19 00:28:56;;;;;;;21.00;14.35;;;14.10;78.20;;;;;;5035149;28;20111;-75
2021/09/19 00:31:22;;;;;;;19.15;15.23;;;14.00;78.10;;;;;;5033929;28;20017;-75
2021/09/19 00:33:47;;;;;;;21.83;15.80;;;14.00;78.20;;;;;;5035044;28;20029;-75
2021/09/19 00:36:13;;;;;;;18.70;14.45;;;14.00;79.20;;;;;;5035098;28;20493;-75
2021/09/19 00:38:38;;;;;;;23.02;15.85;;;14.00;78.30;;;;;;5034924;28;20026;-75
2021/09/19 00:41:04;;;;;;;20.58;15.65;;;14.00;79.10;;;;;;5034814;28;20124;-75
2021/09/19 00:43:29;;;;;;;20.08;16.30;;;14.00;78.50;;;;;;5034805;28;20018;-74
2021/09/19 00:45:55;;;;;;;18.38;14.93;;;14.00;78.80;;;;;;5034942;28;20057;-74
2021/09/19 00:48:21;;;;;;;19.35;15.48;;;14.00;79.00;;;;;;5033477;28;20104;-75
2021/09/19 00:50:46;;;;;;;21.08;15.65;;;14.00;79.00;;;;;;5034627;28;20023;-75
2021/09/19 00:53:12;;;;;;;19.98;15.30;;;14.00;78.90;;;;;;5034704;28;20080;-75
2021/09/19 00:55:38;;;;;;;23.85;17.77;;;14.00;78.80;;;;;;5034436;28;20049;-75
2021/09/19 00:58:10;;;;;;;24.17;16.67;;;14.00;79.00;;;;;;5034665;28;20490;-75
2021/09/19 01:00:38;;;;;;;22.67;17.58;;;14.00;78.90;;;;;;5034459;28;20044;-75
2021/09/19 01:03:04;;;;;;;22.50;17.27;;;13.90;79.00;;;;;;5034568;28;20028;-75
2021/09/19 01:05:31;;;;;;;22.48;16.48;;;13.90;79.20;;;;;;5033087;28;20108;-75
2021/09/19 01:07:58;;;;;;;21.60;16.67;;;13.80;79.40;;;;;;5034417;28;20474;-76
2021/09/19 01:10:25;;;;;;;24.27;17.63;;;13.70;79.80;;;;;;5034305;28;20096;-75
2021/09/19 01:12:53;;;;;;;26.08;17.90;;;13.70;80.00;;;;;;5034000;28;20037;-75
2021/09/19 01:15:20;;;;;;;24.88;16.83;;;13.70;80.10;;;;;;5034338;28;20092;-75
2021/09/19 01:17:46;;;;;;;21.55;16.45;;;13.60;80.30;;;;;;5034190;28;20478;-75
2021/09/19 01:20:15;;;;;;;23.92;17.48;;;13.50;80.30;;;;;;5034060;28;20116;-75
2021/09/19 01:22:56;;;;;;;25.13;17.63;;;13.60;80.50;;;;;;5033922;28;20022;-74
2021/09/19 01:25:22;;;;;;;24.23;17.60;;;13.50;80.70;;;;;;5034118;28;20025;-75
2021/09/19 01:27:48;;;;;;;24.27;18.05;;;13.50;80.90;;;;;;5033839;28;20025;-75
2021/09/19 01:30:14;;;;;;;22.50;16.60;;;13.50;81.00;;;;;;5033952;28;20026;-75
2021/09/19 01:32:40;;;;;;;23.35;16.80;;;13.50;81.00;;;;;;5033483;28;20029;-75
2021/09/19 01:35:07;;;;;;;23.80;17.95;;;13.50;81.00;;;;;;5033962;28;20026;-75
2021/09/19 01:37:33;;;;;;;24.60;17.85;;;13.60;80.80;;;;;;5033724;28;20421;-75
2021/09/19 01:39:59;;;;;;;22.58;17.75;;;13.60;80.60;;;;;;5033626;28;20078;-75
2021/09/19 01:42:27;;;;;;;23.48;15.63;;;13.70;80.40;;;;;;5033652;28;20104;-75
2021/09/19 01:44:53;;;;;;;22.90;16.83;;;13.70;80.30;;;;;;5033731;28;20017;-75
2021/09/19 01:47:18;;;;;;;23.23;18.02;;;13.70;80.10;;;;;;5033700;28;20029;-75
2021/09/19 01:49:46;;;;;;;23.38;17.10;;;13.70;79.90;;;;;;5033645;28;20025;-74
2021/09/19 01:52:12;;;;;;;25.25;19.02;;;13.70;79.90;;;;;;5033569;28;20029;-75
2021/09/19 01:54:38;;;;;;;25.70;18.23;;;13.60;80.00;;;;;;5033380;28;20065;-75
2021/09/19 01:57:03;;;;;;;24.63;18.13;;;13.50;80.40;;;;;;5033537;28;20033;-75
2021/09/19 01:59:29;;;;;;;25.58;18.98;;;13.50;80.60;;;;;;5033440;28;20071;-75
2021/09/19 02:01:55;;;;;;;22.00;17.27;;;13.50;80.70;;;;;;5033557;28;20087;-75
2021/09/19 02:04:21;;;;;;;23.20;17.33;;;13.60;80.40;;;;;;5033398;28;20052;-75
2021/09/19 02:06:46;;;;;;;20.95;16.50;;;13.50;80.40;;;;;;5033339;28;20057;-75
2021/09/19 02:09:12;;;;;;;25.60;18.67;;;13.40;80.50;;;;;;5033357;28;20018;-75
2021/09/19 02:11:38;;;;;;;24.27;17.42;;;13.40;80.70;;;;;;5031921;28;20036;-75
2021/09/19 02:14:03;;;;;;;22.48;16.95;;;13.30;81.00;;;;;;5033265;28;20017;-75
2021/09/19 02:16:29;;;;;;;25.02;18.20;;;13.40;81.00;;;;;;5033226;28;20355;-76
2021/09/19 02:18:56;;;;;;;22.50;16.40;;;13.40;81.00;;;;;;5033228;28;20022;-75
2021/09/19 02:21:23;;;;;;;23.27;17.42;;;13.40;81.00;;;;;;5032941;28;20026;-76
2021/09/19 02:23:48;;;;;;;22.48;16.35;;;13.40;80.70;;;;;;5033124;28;20021;-75
2021/09/19 02:26:14;;;;;;;24.17;18.30;;;13.40;80.70;;;;;;5033019;28;20025;-75
2021/09/19 02:28:40;;;;;;;28.27;19.13;;;13.40;80.80;;;;;;5033255;28;20069;-74
2021/09/19 02:31:05;;;;;;;29.67;20.27;;;13.30;81.10;;;;;;5033024;28;20101;-75
2021/09/19 02:33:32;;;;;;;26.70;19.77;;;13.20;81.40;;;;;;5033131;28;20017;-75
2021/09/19 02:35:58;;;;;;;22.15;17.02;;;13.20;81.40;;;;;;5032851;28;20034;-75
2021/09/19 02:38:23;;;;;;;25.98;17.88;;;13.20;81.70;;;;;;5031808;28;20029;-75
2021/09/19 02:40:51;;;;;;;21.75;16.38;;;13.30;81.60;;;;;;5032860;28;20486;-75
2021/09/19 02:43:18;;;;;;;18.38;14.40;;;13.30;81.40;;;;;;5032973;28;20109;-75
2021/09/19 02:45:44;;;;;;;20.73;15.13;;;13.20;81.10;;;;;;5036642;28;20025;-75
2021/09/19 02:48:09;;;;;;;19.17;14.85;;;13.20;81.00;;;;;;5037015;28;20452;-75
2021/09/19 02:50:35;;;;;;;16.88;13.15;;;13.20;80.90;;;;;;5036979;28;20059;-75
2021/09/19 02:53:01;;;;;;;15.18;11.35;;;13.20;80.70;;;;;;5036885;28;20021;-75
2021/09/19 02:55:26;;;;;;;15.20;11.43;;;13.20;80.10;;;;;;5036659;28;20141;-75
2021/09/19 02:57:52;;;;;;;13.75;10.63;;;13.10;78.70;;;;;;5036838;28;20040;-75
2021/09/19 03:00:20;;;;;;;17.67;10.95;;;13.10;78.70;;;;;;5036763;28;20537;-74
2021/09/19 03:02:49;;;;;;;18.20;11.40;;;13.00;78.40;;;;;;5036587;28;20029;-74
2021/09/19 03:05:14;;;;;;;13.02;9.88;;;12.90;78.40;;;;;;5036577;28;20477;-74
2021/09/19 03:07:40;;;;;;;12.57;10.30;;;12.80;78.60;;;;;;5036521;28;20083;-75
2021/09/19 03:10:07;;;;;;;12.27;9.80;;;12.70;79.80;;;;;;5038084;28;20026;-73
2021/09/19 03:12:33;;;;;;;15.82;12.15;;;12.60;79.10;;;;;;5041639;28;20423;-74
2021/09/19 03:14:59;;;;;;;14.18;10.32;;;12.60;79.60;;;;;;5041221;28;20072;-75
2021/09/19 03:17:24;;;;;;;25.73;16.10;;;12.40;80.40;;;;;;5036678;28;20041;-75
2021/09/19 03:19:50;;;;;;;20.90;17.00;;;12.20;82.30;;;;;;5036363;28;20099;-74
2021/09/19 03:22:15;;;;;;;18.90;14.55;;;12.20;82.70;;;;;;5036419;28;20056;-74
2021/09/19 03:24:41;;;;;;;16.60;12.68;;;12.30;82.80;;;;;;5035101;28;20025;-74
2021/09/19 03:27:07;;;;;;;17.25;12.00;;;12.30;82.30;;;;;;5036407;28;20108;-74
2021/09/19 03:29:33;;;;;;;16.02;12.10;;;12.30;81.10;;;;;;5036227;28;20045;-76
2021/09/19 03:31:58;;;;;;;13.43;11.13;;;12.30;81.10;;;;;;5036330;28;20088;-75
2021/09/19 03:34:24;;;;;;;15.75;12.02;;;12.30;81.20;;;;;;5036352;28;20029;-74
2021/09/19 03:36:50;;;;;;;14.77;11.20;;;12.30;81.20;;;;;;5036002;28;20036;-75
2021/09/19 03:39:16;;;;;;;17.42;11.15;;;12.30;81.10;;;;;;5036011;28;20083;-74
2021/09/19 03:41:42;;;;;;;14.38;10.40;;;12.30;81.10;;;;;;5036034;28;20722;-75
2021/09/19 03:44:10;;;;;;;14.88;11.73;;;12.30;81.20;;;;;;5035966;28;20025;-74
2021/09/19 03:46:39;;;;;;;17.88;13.20;;;12.30;81.20;;;;;;5035843;28;20497;-75
2021/09/19 03:49:05;;;;;;;14.77;11.40;;;12.20;81.40;;;;;;5035903;28;20386;-76
2021/09/19 03:51:30;;;;;;;15.18;12.27;;;12.20;81.80;;;;;;5034563;28;20029;-75
2021/09/19 03:53:56;;;;;;;17.27;11.90;;;12.20;81.70;;;;;;5035776;28;20460;-75
2021/09/19 03:56:22;;;;;;;16.02;12.43;;;12.20;82.00;;;;;;5035377;28;20026;-74
2021/09/19 03:58:49;;;;;;;18.95;14.13;;;12.20;81.90;;;;;;5035746;28;20473;-75
2021/09/19 04:01:15;;;;;;;16.50;13.27;;;12.20;82.10;;;;;;5034379;28;20091;-75
2021/09/19 04:03:42;;;;;;;17.45;12.95;;;12.20;82.40;;;;;;5034088;28;20026;-75
2021/09/19 04:06:07;;;;;;;17.08;13.15;;;12.10;82.20;;;;;;5035662;28;20030;-75
2021/09/19 04:08:33;;;;;;;19.73;13.70;;;12.10;82.40;;;;;;5035483;28;20025;-75
2021/09/19 04:10:59;;;;;;;18.95;14.98;;;12.00;82.30;;;;;;5035487;28;20482;-74
2021/09/19 04:13:24;;;;;;;17.20;12.10;;;12.00;82.70;;;;;;5035300;28;20017;-75
2021/09/19 04:15:50;;;;;;;19.73;14.50;;;12.00;82.90;;;;;;5034062;28;20474;-74
2021/09/19 04:18:16;;;;;;;18.23;13.63;;;11.90;82.90;;;;;;5035288;28;20052;-75
2021/09/19 04:20:43;;;;;;;19.92;12.77;;;11.80;83.00;;;;;;5035214;28;20029;-74
2021/09/19 04:23:09;;;;;;;15.23;12.30;;;11.80;82.70;;;;;;5035345;28;20055;-75
2021/09/19 04:25:34;;;;;;;16.02;12.52;;;11.90;82.40;;;;;;5035155;28;20053;-75
2021/09/19 04:28:00;;;;;;;15.23;12.27;;;11.70;82.00;;;;;;5035175;28;20021;-75
2021/09/19 04:30:26;;;;;;;18.42;11.80;;;11.60;82.30;;;;;;5035072;28;20033;-75
2021/09/19 04:32:51;;;;;;;14.82;11.25;;;11.60;82.10;;;;;;5033747;28;20017;-74
2021/09/19 04:35:17;;;;;;;15.10;11.35;;;11.70;81.80;;;;;;5034943;28;20159;-74
2021/09/19 04:37:42;;;;;;;17.08;12.45;;;11.60;81.10;;;;;;5034824;28;20071;-75
2021/09/19 04:40:09;;;;;;;15.35;10.18;;;11.50;81.00;;;;;;5034796;28;20369;-75
2021/09/19 04:42:35;;;;;;;17.02;12.18;;;11.50;81.30;;;;;;5034800;28;20490;-75
2021/09/19 04:45:01;;;;;;;17.00;11.73;;;11.40;81.80;;;;;;5034713;28;20040;-75
2021/09/19 04:47:26;;;;;;;14.25;11.30;;;11.40;82.10;;;;;;5034877;28;20536;-74
2021/09/19 04:49:52;;;;;;;14.50;11.30;;;11.40;81.90;;;;;;5034715;28;20489;-75
2021/09/19 04:52:18;;;;;;;13.57;10.30;;;11.50;82.00;;;;;;5034656;28;20040;-75
2021/09/19 04:54:44;;;;;;;11.20;9.13;;;11.40;81.80;;;;;;5034423;28;20120;-75
2021/09/19 04:57:09;;;;;;;12.55;9.15;;;11.50;81.50;;;;;;5034555;28;20028;-75
2021/09/19 04:59:35;;;;;;;15.70;8.73;;;11.50;81.00;;;;;;5034457;28;20030;-75
2021/09/19 05:02:02;;;;;;;10.98;8.50;;;11.50;80.40;;;;;;5034576;28;20030;-75
2021/09/19 05:04:28;;;;;;;10.77;8.05;;;11.60;80.10;;;;;;5034370;28;20021;-75
2021/09/19 05:06:53;;;;;;;11.45;8.75;;;11.60;79.80;;;;;;5033701;28;20033;-75
2021/09/19 05:09:19;;;;;;;14.50;9.90;;;11.50;79.70;;;;;;5034334;28;20488;-74
2021/09/19 05:11:44;;;;;;;11.88;8.88;;;11.60;79.50;;;;;;5034374;28;20033;-75
2021/09/19 05:14:10;;;;;;;10.15;7.93;;;11.60;79.30;;;;;;5032890;28;20108;-75
2021/09/19 05:16:35;;;;;;;12.20;9.43;;;11.50;79.40;;;;;;5034131;28;20040;-75
2021/09/19 05:19:01;;;;;;;13.65;8.25;;;11.60;79.40;;;;;;5034285;28;20504;-75
2021/09/19 05:21:27;;;;;;;12.20;8.38;;;11.60;80.10;;;;;;5034146;28;20163;-74
2021/09/19 05:23:52;;;;;;;12.32;8.70;;;11.50;79.40;;;;;;5034006;28;20096;-75
2021/09/19 05:26:18;;;;;;;9.57;7.53;;;11.50;79.30;;;;;;5034113;28;20033;-75
2021/09/19 05:28:43;;;;;;;10.68;8.13;;;11.50;79.20;;;;;;5032791;28;20025;-75
2021/09/19 05:31:09;;;;;;;9.73;7.57;;;11.60;79.00;;;;;;5032687;28;20028;-74
2021/09/19 05:33:35;;;;;;;12.90;8.90;;;11.60;78.90;;;;;;5034009;28;20100;-74
2021/09/19 05:36:00;;;;;;;12.18;9.23;;;11.60;78.40;;;;;;5033993;28;20057;-74
2021/09/19 05:38:26;;;;;;;10.90;8.65;;;11.60;78.50;;;;;;5034092;28;20045;-76
2021/09/19 05:40:51;;;;;;;11.90;8.80;;;11.50;78.60;;;;;;5033661;28;20068;-74
2021/09/19 05:43:17;;;;;;;11.75;8.48;;;11.60;78.60;;;;;;5034081;28;20026;-74
2021/09/19 05:45:43;;;;;;;13.57;8.85;;;11.60;78.60;;;;;;5033788;28;20026;-75
2021/09/19 05:48:08;;;;;;;12.07;7.82;;;11.50;78.50;;;;;;5033818;28;20025;-75
2021/09/19 05:50:34;;;;;;;11.40;8.85;;;11.60;78.40;;;;;;5033602;28;20034;-74
2021/09/19 05:53:00;;;;;;;9.35;7.57;;;11.70;78.20;;;;;;5033862;28;20097;-74
2021/09/19 05:55:25;;;;;;;10.85;8.88;;;11.70;78.10;;;;;;5033555;28;20079;-76
2021/09/19 05:57:51;;;;;;;11.20;8.55;;;11.70;78.20;;;;;;5033571;28;20022;-74
2021/09/19 06:00:17;;;;;;;9.20;7.05;;;11.80;78.00;;;;;;5033537;28;20033;-73
2021/09/19 06:02:42;;;;;;;12.57;9.32;;;11.90;77.90;;;;;;5033532;28;20026;-76
2021/09/19 06:05:08;;;;;;;14.30;10.70;;;11.90;77.60;;;;;;5033441;28;20034;-75
2021/09/19 06:07:34;;;;;;;13.10;10.82;;;12.00;77.30;;;;;;5033322;28;20638;-75
2021/09/19 06:09:59;;;;;;;16.48;11.77;;;11.90;78.10;;;;;;5033457;28;20029;-75
2021/09/19 06:12:25;;;;;;;15.10;12.07;;;11.80;79.00;;;;;;5033326;28;20037;-75
2021/09/19 06:14:51;;;;;;;18.00;13.68;;;11.60;80.50;;;;;;5033230;28;20023;-75
2021/09/19 06:17:18;;;;;;;16.80;12.65;;;11.50;81.20;;;;;;5033282;28;20029;-75
2021/09/19 06:19:44;;;;;;;20.73;14.10;;;11.60;81.20;;;;;;5032891;28;20478;-75
2021/09/19 06:22:09;;;;;;;17.70;12.23;;;11.70;80.90;;;;;;5033152;28;20064;-75
2021/09/19 06:24:35;;;;;;;19.40;12.70;;;11.70;80.90;;;;;;5032988;28;20470;-76
2021/09/19 06:27:01;;;;;;;20.42;14.27;;;11.90;80.80;;;;;;5033103;28;20468;-76
2021/09/19 06:29:28;;;;;;;16.95;12.90;;;12.00;80.50;;;;;;5032917;28;20355;-76
2021/09/19 06:31:54;;;;;;;16.85;12.48;;;12.10;80.80;;;;;;5033006;28;20057;-76
2021/09/19 06:34:20;;;;;;;17.30;13.60;;;12.30;80.10;;;;;;5032890;28;20022;-76
2021/09/19 06:36:46;;;;;;;20.42;15.68;;;12.40;79.70;;;;;;5032755;28;20079;-76
2021/09/19 06:39:11;;;;;;;22.83;16.40;;;12.30;80.40;;;;;;5032980;28;20017;-76
2021/09/19 06:41:37;;;;;;;20.25;15.43;;;12.20;81.10;;;;;;5032739;28;20033;-76
2021/09/19 06:44:03;;;;;;;28.08;20.05;;;12.20;81.10;;;;;;5032836;28;20021;-75
2021/09/19 06:46:32;;;;;;;28.08;20.73;;;12.30;81.20;;;;;;5032653;28;20474;-76
2021/09/19 06:49:00;;;;;;;34.50;23.58;;;12.30;82.80;;;;;;5032730;28;20032;-76
2021/09/19 06:51:26;;;;;;;31.48;23.05;;;12.10;83.90;;;;;;5032914;28;20018;-75
2021/09/19 06:53:52;;;;;;;35.10;23.73;;;12.10;84.90;;;;;;5032525;28;20045;-76
2021/09/19 06:56:20;;;;;;;40.55;24.63;;;12.10;84.90;;;;;;5032729;28;20033;-76
2021/09/19 06:58:46;;;;;;;36.17;24.67;;;12.20;84.80;;;;;;5032707;28;20021;-76
2021/09/19 07:01:12;;;;;;;37.35;25.83;;;12.20;85.40;;;;;;5031692;28;20044;-76
2021/09/19 07:03:37;;;;;;;33.50;23.50;;;12.30;84.90;;;;;;5033396;28;20072;-76
2021/09/19 07:06:03;;;;;;;28.35;20.73;;;12.40;84.50;;;;;;5032849;28;20104;-76
2021/09/19 07:08:28;;;;;;;30.45;21.42;;;12.60;84.00;;;;;;5032869;28;20313;-76
2021/09/19 07:10:54;;;;;;;26.65;19.55;;;12.80;83.40;;;;;;5032570;28;20033;-76
2021/09/19 07:13:23;;;;;;;33.75;23.23;;;13.00;82.70;;;;;;5032467;28;20025;-76
2021/09/19 07:15:52;;;;;;;28.17;20.23;;;13.10;81.60;;;;;;5036001;28;20382;-76
2021/09/19 07:18:21;;;;;;;22.95;18.35;;;13.20;81.50;;;;;;5032557;28;20449;-76
2021/09/19 07:20:47;;;;;;;25.52;19.33;;;13.40;81.10;;;;;;5043102;28;20063;-76
2021/09/19 07:23:13;;;;;;;29.42;20.75;;;13.60;80.70;;;;;;5052428;28;20022;-76
2021/09/19 07:25:39;;;;;;;26.60;19.13;;;13.70;81.10;;;;;;5042072;28;20410;-76
2021/09/19 07:28:06;;;;;;;25.27;19.23;;;14.00;79.90;;;;;;5031668;28;20040;-76
2021/09/19 07:30:32;;;;;;;27.95;20.70;;;14.20;79.20;;;;;;5033996;28;20076;-76
2021/09/19 07:32:58;;;;;;;22.23;16.98;;;14.40;78.50;;;;;;5035975;28;20367;-76
2021/09/19 07:35:24;;;;;;;23.45;17.95;;;14.50;78.00;;;;;;5036013;28;20032;-76
2021/09/19 07:37:50;;;;;;;23.98;18.20;;;14.70;77.50;;;;;;5035981;28;20442;-76
2021/09/19 07:40:16;;;;;;;25.65;18.13;;;14.70;77.30;;;;;;5035875;28;20087;-76
2021/09/19 07:42:42;;;;;;;21.25;16.05;;;14.80;76.90;;;;;;5035871;28;20045;-76
2021/09/19 07:45:09;;;;;;;32.28;24.00;;;14.90;76.80;;;;;;5035813;28;20509;-76
2021/09/19 07:47:35;;;;;;;26.08;19.85;;;15.00;76.40;;;;;;5035743;28;20020;-76
2021/09/19 07:50:01;;;;;;;24.30;18.42;;;15.10;76.40;;;;;;5035786;28;20021;-76
2021/09/19 07:52:28;;;;;;;24.63;17.83;;;15.20;76.10;;;;;;5035772;28;20029;-76
2021/09/19 07:54:56;;;;;;;27.08;18.98;;;15.30;75.70;;;;;;5035505;28;20079;-76
2021/09/19 07:57:23;;;;;;;24.95;19.55;;;15.20;75.10;;;;;;5035680;28;20072;-76
2021/09/19 07:59:51;;;;;;;27.98;20.63;;;15.20;75.10;;;;;;5035506;28;20087;-76
2021/09/19 08:02:17;;;;;;;28.42;21.13;;;15.00;75.70;;;;;;5035723;28;20075;-76
2021/09/19 08:04:42;;;;;;;24.65;17.83;;;14.90;76.70;;;;;;5035525;28;20027;-77
2021/09/19 08:07:08;;;;;;;27.67;20.02;;;14.90;77.10;;;;;;5035547;28;20105;-76
2021/09/19 08:09:34;;;;;;;27.13;20.45;;;15.00;76.20;;;;;;5035380;28;20025;-76
2021/09/19 08:11:59;;;;;;;21.73;17.23;;;14.90;76.80;;;;;;5035500;28;20025;-75
2021/09/19 08:14:25;;;;;;;38.38;14.40;;;15.00;76.80;;;;;;5035293;28;20022;-76
2021/09/19 08:16:51;;;;;;;28.33;17.92;;;15.30;80.20;;;;;;5035149;28;20025;-79
2021/09/19 08:19:18;;;;;;;24.77;17.80;;;15.70;80.30;;;;;;5035331;28;20355;-76
2021/09/19 08:21:44;;;;;;;26.30;14.32;;;16.10;76.70;;;;;;5035153;28;20029;-77
2021/09/19 08:24:11;;;;;;;24.58;16.10;;;16.10;76.20;;;;;;5033933;28;20032;-75
2021/09/19 08:26:38;;;;;;;19.58;14.38;;;16.40;75.50;;;;;;5035057;28;20049;-75
2021/09/19 08:29:04;;;;;;;19.00;14.00;;;16.70;75.20;;;;;;5035142;28;20017;-77
2021/09/19 08:31:30;;;;;;;22.95;15.43;;;17.00;73.00;;;;;;5035108;28;20022;-76
2021/09/19 08:33:56;;;;;;;17.92;14.15;;;17.30;70.80;;;;;;5035182;28;20544;-75
2021/09/19 08:36:21;;;;;;;18.08;13.40;;;17.50;70.80;;;;;;5034864;28;20028;-76
2021/09/19 08:38:47;;;;;;;20.92;14.85;;;17.70;69.30;;;;;;5034767;28;20119;-76
2021/09/19 08:41:16;;;;;;;21.40;15.80;;;17.80;68.40;;;;;;5034153;28;20405;-76
2021/09/19 08:43:44;;;;;;;17.35;12.55;;;17.80;67.00;;;;;;5033224;28;20481;-77
2021/09/19 08:46:10;;;;;;;14.68;11.90;;;17.90;67.50;;;;;;5034786;28;20029;-77
2021/09/19 08:48:38;;;;;;;17.20;11.10;;;18.10;67.50;;;;;;5034524;28;20018;-76
2021/09/19 08:51:04;;;;;;;14.05;12.00;;;18.40;66.80;;;;;;5034654;28;20037;-76
2021/09/19 08:53:31;;;;;;;13.75;11.27;;;18.60;65.90;;;;;;5034375;28;20033;-76
2021/09/19 08:56:00;;;;;;;10.10;8.95;;;18.80;65.10;;;;;;5034737;28;20032;-76
2021/09/19 08:58:27;;;;;;;13.38;11.40;;;19.00;64.40;;;;;;5034469;28;20378;-76
2021/09/19 09:00:52;;;;;;;11.80;9.50;;;19.10;63.60;;;;;;5034368;28;20029;-76
2021/09/19 09:03:23;;;;;;;16.67;10.88;;;19.30;63.10;;;;;;5034370;28;20035;-76
2021/09/19 09:06:03;;;;;;;16.13;11.65;;;19.40;62.40;;;;;;5034308;28;20053;-76
2021/09/19 09:08:31;;;;;;;11.57;10.23;;;19.30;61.60;;;;;;5034260;28;20022;-76
2021/09/19 09:10:59;;;;;;;12.77;10.73;;;19.30;62.40;;;;;;5034482;28;20021;-76
2021/09/19 09:13:30;;;;;;;16.75;13.30;;;19.50;61.60;;;;;;5034269;28;20540;-76
2021/09/19 09:16:17;;;;;;;15.93;13.18;;;19.40;60.60;;;;;;5034292;28;20096;-75
2021/09/19 09:18:44;;;;;;;13.30;10.95;;;19.20;61.10;;;;;;5034287;28;20049;-77
2021/09/19 09:21:12;;;;;;;11.55;9.43;;;19.30;61.90;;;;;;5034056;28;20033;-76
2021/09/19 09:23:46;;;;;;;15.52;10.30;;;19.40;61.70;;;;;;5033980;28;20032;-77
2021/09/19 09:26:27;;;;;;;13.45;10.98;;;19.70;61.20;;;;;;5034053;28;20026;-77
2021/09/19 09:29:04;;;;;;;14.00;11.90;;;19.80;60.20;;;;;;5033988;28;20051;-77
2021/09/19 09:31:39;;;;;;;16.65;12.32;;;19.90;59.50;;;;;;5034014;28;20044;-77
2021/09/19 09:34:12;;;;;;;15.15;13.55;;;20.00;58.40;;;;;;5033986;28;20029;-77
2021/09/19 09:36:42;;;;;;;16.17;11.55;;;19.60;58.80;;;;;;5033766;28;20108;-77
2021/09/19 09:39:24;;;;;;;15.18;12.60;;;19.10;61.50;;;;;;5033926;28;20107;-77
2021/09/19 09:41:52;;;;;;;10.18;8.77;;;18.80;64.00;;;;;;5033711;28;20030;-76
2021/09/19 09:44:35;;;;;;;14.75;11.30;;;19.10;63.30;;;;;;5033640;28;20025;-76
2021/09/19 09:47:04;;;;;;;15.57;12.00;;;19.40;62.20;;;;;;5033716;28;20053;-77
2021/09/19 09:49:45;;;;;;;13.75;12.00;;;19.50;60.60;;;;;;5033536;28;20022;-76
2021/09/19 09:52:18;;;;;;;14.30;12.55;;;19.20;62.80;;;;;;5033506;28;20025;-77
2021/09/19 09:54:46;;;;;;;14.68;12.00;;;19.20;62.90;;;;;;5032926;28;20051;-77
2021/09/19 09:57:14;;;;;;;14.20;12.50;;;19.30;63.50;;;;;;5033405;28;20132;-78
2021/09/19 09:59:44;;;;;;;15.68;13.05;;;19.30;62.10;;;;;;5033749;28;20398;-77
2021/09/19 10:02:12;;;;;;;15.95;12.38;;;19.20;61.60;;;;;;5032723;28;20401;-78
2021/09/19 10:04:38;;;;;;;16.00;12.18;;;19.40;61.30;;;;;;5037188;28;20036;-77
2021/09/19 10:07:04;;;;;;;16.00;12.82;;;19.50;62.00;;;;;;5037286;28;20025;-77
2021/09/19 10:09:30;;;;;;;15.77;11.63;;;19.50;61.10;;;;;;5037334;28;20378;-77
2021/09/19 10:11:55;;;;;;;15.70;12.88;;;19.90;61.40;;;;;;5034902;28;20018;-77
2021/09/19 10:14:22;;;;;;;16.05;12.43;;;19.70;59.00;;;;;;5033535;28;20466;-77
2021/09/19 10:16:48;;;;;;;13.68;12.27;;;19.80;59.50;;;;;;5033070;28;20163;-77
2021/09/19 10:19:19;;;;;;;13.73;11.73;;;20.00;60.80;;;;;;5033053;28;20028;-77
2021/09/19 10:21:47;;;;;;;12.38;10.18;;;20.20;60.40;;;;;;5032954;28;20033;-77
2021/09/19 10:24:13;;;;;;;12.18;10.63;;;20.80;59.40;;;;;;5033202;28;20029;-78
2021/09/19 10:26:52;;;;;;;12.40;10.93;;;21.10;57.70;;;;;;5032895;28;20029;-78
2021/09/19 10:29:19;;;;;;;13.02;9.32;;;21.10;57.10;;;;;;5032750;28;20100;-77
2021/09/19 10:31:44;;;;;;;13.05;10.75;;;21.20;57.20;;;;;;5032948;28;20030;-77
2021/09/19 10:34:10;;;;;;;14.35;11.10;;;21.30;56.30;;;;;;5032956;28;20076;-77
2021/09/19 10:36:52;;;;;;;13.95;11.10;;;21.30;55.80;;;;;;5032914;28;20105;-75
2021/09/19 10:39:30;;;;;;;13.70;10.68;;;21.30;55.70;;;;;;5032854;28;20017;-77
2021/09/19 10:42:20;;;;;;;15.13;11.73;;;21.30;56.00;;;;;;5031548;28;20505;-77
2021/09/19 10:44:45;;;;;;;11.20;9.20;;;21.10;56.50;;;;;;5032954;28;20025;-75
2021/09/19 10:47:33;;;;;;;12.93;10.00;;;21.60;55.60;;;;;;5032849;28;20478;-77
2021/09/19 10:50:31;;;;;;;11.13;9.65;;;21.20;54.50;;;;;;5032847;28;20034;-74
2021/09/19 10:53:04;;;;;;;11.00;9.45;;;21.30;54.80;;;;;;5027072;28;20390;-75
2021/09/19 10:55:54;;;;;;;15.48;10.38;;;21.70;54.50;;;;;;5032424;28;20037;-74
2021/09/19 10:58:40;;;;;;;11.07;9.00;;;21.50;54.40;;;;;;5023122;28;20061;-75
2021/09/19 11:01:13;;;;;;;12.20;10.18;;;21.90;53.60;;;;;;5032640;28;20115;-75
2021/09/19 11:03:41;;;;;;;12.68;9.63;;;22.00;53.50;;;;;;5031342;28;20026;-75
2021/09/19 11:06:21;;;;;;;11.15;8.07;;;22.00;53.70;;;;;;5035461;28;20367;-75
2021/09/19 11:08:47;;;;;;;9.38;7.70;;;22.30;53.40;;;;;;5037083;28;20087;-76
2021/09/19 11:11:18;;;;;;;10.70;8.95;;;22.30;52.60;;;;;;5036805;28;20025;-75
2021/09/19 11:13:48;;;;;;;11.65;9.27;;;22.20;52.00;;;;;;5036417;28;20017;-75
2021/09/19 11:16:22;;;;;;;8.65;7.72;;;22.00;52.40;;;;;;5036493;28;20437;-77
2021/09/19 11:18:50;;;;;;;13.95;9.70;;;21.70;53.30;;;;;;5036287;28;20147;-74
2021/09/19 11:21:27;;;;;;;10.93;9.07;;;21.50;53.70;;;;;;5036280;28;20048;-77
2021/09/19 11:23:57;;;;;;;8.50;7.18;;;21.20;54.30;;;;;;5036345;28;20164;-77
2021/09/19 11:26:30;;;;;;;10.55;9.45;;;21.30;55.30;;;;;;5036332;28;20032;-77
2021/09/19 11:29:00;;;;;;;7.68;6.45;;;21.10;54.40;;;;;;5036253;28;20021;-77
2021/09/19 11:31:26;;;;;;;9.20;7.75;;;20.90;55.70;;;;;;5036208;28;20033;-76
2021/09/19 11:33:52;;;;;;;6.70;5.50;;;21.00;55.10;;;;;;5036210;28;20028;-76
2021/09/19 11:36:20;;;;;;;6.90;5.30;;;21.20;54.90;;;;;;5036157;28;20099;-76
2021/09/19 11:38:49;;;;;;;8.10;5.97;;;21.30;54.60;;;;;;5035943;28;20013;-76
2021/09/19 11:41:15;;;;;;;7.60;6.80;;;21.20;54.70;;;;;;5036116;28;20386;-77
2021/09/19 11:43:43;;;;;;;6.32;5.68;;;21.10;55.00;;;;;;5035930;28;20033;-77
2021/09/19 11:46:10;;;;;;;6.55;5.45;;;20.90;55.20;;;;;;5036046;28;20386;-76
2021/09/19 11:48:37;;;;;;;7.07;5.30;;;20.80;55.70;;;;;;5035765;28;20022;-76
2021/09/19 11:51:03;;;;;;;6.03;5.43;;;20.70;56.50;;;;;;5035893;28;20104;-76
2021/09/19 11:53:30;;;;;;;25.20;19.25;;;20.60;56.70;;;;;;5035561;28;20151;-76
2021/09/19 11:55:56;;;;;;;12.27;8.77;;;20.60;56.30;;;;;;5035746;28;20048;-75
2021/09/19 11:58:22;;;;;;;5.75;5.10;;;20.60;55.70;;;;;;5035618;28;20017;-76
2021/09/19 12:00:52;;;;;;;7.55;4.78;;;20.50;56.10;;;;;;5035543;28;20045;-77
2021/09/19 12:03:19;;;;;;;6.68;4.97;;;20.60;55.80;;;;;;5035560;28;20500;-79
2021/09/19 12:06:05;;;;;;;5.65;5.00;;;20.70;54.60;;;;;;5035528;28;20110;-75
2021/09/19 12:08:33;;;;;;;7.00;6.10;;;20.90;54.00;;;;;;5035212;28;20029;-78
2021/09/19 12:11:00;;;;;;;6.47;5.35;;;20.80;52.00;;;;;;5035425;28;20083;-76
2021/09/19 12:13:35;;;;;;;6.32;4.35;;;20.80;51.10;;;;;;5035233;28;20461;-77
2021/09/19 12:16:25;;;;;;;4.93;4.43;;;20.60;51.30;;;;;;5034999;28;20492;-75
2021/09/19 12:18:51;;;;;;;6.40;5.07;;;20.60;52.50;;;;;;5035176;28;20032;-77
2021/09/19 12:21:20;;;;;;;5.47;4.82;;;20.40;54.10;;;;;;5045248;28;20041;-76
2021/09/19 12:23:53;;;;;;;8.93;4.07;;;20.30;55.50;;;;;;5046263;28;20485;-76
2021/09/19 12:26:26;;;;;;;5.72;5.07;;;20.10;56.50;;;;;;5036351;28;20041;-76
2021/09/19 12:28:56;;;;;;;5.47;4.82;;;20.00;57.70;;;;;;5035561;28;20021;-76
2021/09/19 12:31:44;;;;;;;5.53;4.82;;;19.80;58.50;;;;;;5035343;28;20022;-76
2021/09/19 12:34:17;;;;;;;6.25;5.60;;;19.60;59.20;;;;;;5035305;28;20025;-76